23 maggio 2022

Tempo Codice Tempo metereologico Temp. Vista Nuvole Vento METAR/SPECI
19:00
V
26 °C 10 km+ - 190°   190° 10 kt METAR LESU 231700Z 19010KT 160V220 9999 SCT070 26/08 Q1008
18:30
V
26 °C 10 km+ - 200°   200° 13 kt METAR LESU 231630Z 20013KT 160V240 9999 SCT070 26/09 Q1008
18:00
V
25 °C 10 km+ - 200°   200° 15 25 kt METAR LESU 231600Z 20015G25KT 170V230 9999 SCT075 25/09 Q1008
17:30
V
26 °C 10 km+ 7.800 ft 200°   200° 14 kt METAR LESU 231530Z 20014KT 170V240 9999 BKN078 26/10 Q1008
17:00
V
26 °C 10 km+ 8.200 ft 200°   200° 12 kt METAR LESU 231500Z 20012KT 9999 BKN082 26/09 Q1008
16:30
V
27 °C 10 km+ - 210°   210° 15 kt METAR LESU 231430Z 21015KT 190V250 9999 SCT084 27/09 Q1008
16:00
V
27 °C 10 km+ - 190°   190° 13 kt METAR LESU 231400Z 19013KT 160V230 9999 SCT079 27/10 Q1008
15:30
V
27 °C 10 km+ - 200°   200° 14 kt METAR LESU 231330Z 20014KT 170V230 9999 SCT082 27/10 Q1008
15:00
V
27 °C 10 km+ - 200°   200° 12 kt METAR LESU 231300Z 20012KT 160V240 9999 FEW087 27/10 Q1008
14:30
V
28 °C 10 km+ - 200°   200° 12 kt METAR LESU 231230Z 20012KT 170V250 9999 FEW080 28/10 Q1008
14:00
V
27 °C 10 km+ - 190°   190° 13 kt METAR LESU 231200Z 19013KT 140V220 9999 FEW080 27/09 Q1008
13:30
V
27 °C 10 km+ - 200°   200° 14 kt METAR LESU 231130Z 20014KT 160V220 9999 FEW090 27/07 Q1008
13:00
V
27 °C 10 km+ - 200°   200° 12 kt METAR LESU 231100Z 20012KT 170V230 9999 FEW090 27/06 Q1008
12:30
V
26 °C 10 km+ - 180°   180° 11 kt METAR LESU 231030Z 18011KT 140V210 9999 FEW090 26/04 Q1008
12:00
V
26 °C 10 km+ - 190°   190° 13 kt METAR LESU 231000Z 19013KT 160V230 9999 FEW090 26/04 Q1008
11:30
V
25 °C 10 km+ - 210°   210° 6 kt METAR LESU 230930Z 21006KT 140V260 CAVOK 25/05 Q1009
11:00
V
23 °C 10 km+ - Var   Var 2 kt METAR LESU 230900Z VRB02KT CAVOK 23/03 Q1009
10:30
V
22 °C 10 km+ - Var   Var 1 kt METAR LESU 230830Z VRB01KT CAVOK 22/02 Q1009
10:00
V
19 °C 10 km+ - Var   Var 2 kt METAR LESU 230800Z VRB02KT 9999 FEW093 19/04 Q1009

22 maggio 2022

Tempo Codice Tempo metereologico Temp. Vista Nuvole Vento METAR/SPECI
19:30
V
31 °C 10 km+ - 270°   270° 10 kt METAR LESU 221730Z 27010KT 230V300 CAVOK 31/03 Q1012
19:00
V
32 °C 10 km+ - 240°   240° 11 kt METAR LESU 221700Z 24011KT 210V270 CAVOK 32/01 Q1012
18:30
V
32 °C 10 km+ - 190°   190° 13 kt METAR LESU 221630Z 19013KT 160V230 CAVOK 32/01 Q1012
18:00
V
33 °C 10 km+ - 240°   240° 9 kt METAR LESU 221600Z 24009KT 190V270 CAVOK 33/01 Q1012
17:30
V
34 °C 10 km+ - 210°   210° 7 kt METAR LESU 221530Z 21007KT 140V260 CAVOK 34/01 Q1012
17:00
V
33 °C 10 km+ - 240°   240° 12 kt METAR LESU 221500Z 24012KT 210V280 CAVOK 33/00 Q1012
16:30
V
33 °C 10 km+ - 250°   250° 12 kt METAR LESU 221430Z 25012KT 210V290 CAVOK 33/02 Q1013
16:00
V
32 °C 10 km+ - 200°   200° 11 kt METAR LESU 221400Z 20011KT 180V240 CAVOK 32/02 Q1013
15:30
V
35 °C 10 km+ - 200°   200° 8 kt METAR LESU 221330Z 20008KT 170V270 CAVOK 35/03 Q1013
15:00
V
34 °C 10 km+ - 180°   180° 11 kt METAR LESU 221300Z 18011KT 140V210 CAVOK 34/01 Q1013
14:30
V
34 °C 10 km+ - 180°   180° 11 kt METAR LESU 221230Z 18011KT 140V220 CAVOK 34/01 Q1014
14:00
V
34 °C 10 km+ - 190°   190° 12 kt METAR LESU 221200Z 19012KT 160V230 CAVOK 34/02 Q1014
13:30
V
33 °C 10 km+ - 180°   180° 12 kt METAR LESU 221130Z 18012KT 150V210 CAVOK 33/02 Q1015
13:00
V
32 °C 10 km+ - 180°   180° 5 kt METAR LESU 221100Z 18005KT 080V230 CAVOK 32/04 Q1015
12:30
V
30 °C 10 km+ - Var   Var 2 kt METAR LESU 221030Z VRB02KT CAVOK 30/06 Q1016
12:00
V
28 °C 10 km+ - 170°   170° 3 kt METAR LESU 221000Z 17003KT 120V230 CAVOK 28/07 Q1016
11:30
V
26 °C 10 km+ - Var   Var 2 kt METAR LESU 220930Z VRB02KT CAVOK 26/08 Q1016
11:00
V
24 °C 10 km+ - Var   Var 2 kt METAR LESU 220900Z VRB02KT CAVOK 24/08 Q1017
10:30
V
23 °C 10 km+ - Var   Var 3 kt METAR LESU 220830Z VRB03KT CAVOK 23/07 Q1018
10:00
V
21 °C 10 km+ - 080°   080° 4 kt METAR LESU 220800Z 08004KT 040V140 CAVOK 21/06 Q1018

21 maggio 2022

Tempo Codice Tempo metereologico Temp. Vista Nuvole Vento METAR/SPECI
17:30
V
33 °C 10 km+ - 200°   200° 11 kt METAR LESU 211530Z 20011KT 170V230 9999 FEW090CB 33/03 Q1020
17:00
V
34 °C 10 km+ - 200°   200° 11 kt METAR LESU 211500Z 20011KT 170V250 9999 FEW090TCU 34/04 Q1020
Dati più vecchi

Scarica la nostra applicazione

Facile accesso a tutte le previsioni dell'aviazione sul tuo cellulare e tablet.
Con molte caratteristiche non disponibili sul sito web, come il supporto offline e una lista personale di aeroporti.

Noi e le terze parti seguiamo il tuo comportamento in internet sul nostro sito web con i cookie. Se continui, riteniamo che tu sia d'accordo con la nostra politica sui cookie. Per saperne di più